sensor_id;sensor_type;location;lat;lon;timestamp;pressure;altitude;pressure_sealevel;temperature;humidity
72961;BME280;61141;46.204;19.774;2023-03-26T00:02:48;100040.47;;;7.66;93.97
72961;BME280;61141;46.204;19.774;2023-03-26T00:06:02;100041.25;;;7.66;93.86
72961;BME280;61141;46.204;19.774;2023-03-26T00:09:09;100049.44;;;7.66;93.94
72961;BME280;61141;46.204;19.774;2023-03-26T00:12:12;100067.66;;;7.62;94.07
72961;BME280;61141;46.204;19.774;2023-03-26T00:15:15;100055.56;;;7.44;94.68
72961;BME280;61141;46.204;19.774;2023-03-26T00:18:19;100051.97;;;7.40;94.78
72961;BME280;61141;46.204;19.774;2023-03-26T00:21:25;100061.03;;;7.44;94.79
72961;BME280;61141;46.204;19.774;2023-03-26T00:24:30;100051.00;;;7.33;94.56
72961;BME280;61141;46.204;19.774;2023-03-26T00:27:33;100088.97;;;7.41;94.66
72961;BME280;61141;46.204;19.774;2023-03-26T00:30:36;100068.72;;;7.23;94.71
72961;BME280;61141;46.204;19.774;2023-03-26T00:33:39;100070.81;;;7.14;95.21
72961;BME280;61141;46.204;19.774;2023-03-26T00:36:43;100069.69;;;7.15;95.18
72961;BME280;61141;46.204;19.774;2023-03-26T00:39:48;100071.09;;;7.09;95.54
72961;BME280;61141;46.204;19.774;2023-03-26T00:42:51;100074.50;;;7.22;95.71
72961;BME280;61141;46.204;19.774;2023-03-26T00:45:54;100068.97;;;7.18;95.35
72961;BME280;61141;46.204;19.774;2023-03-26T00:48:58;100067.41;;;7.17;94.91
72961;BME280;61141;46.204;19.774;2023-03-26T00:52:02;100058.94;;;7.22;94.40
72961;BME280;61141;46.204;19.774;2023-03-26T00:55:05;100049.72;;;7.11;93.84
72961;BME280;61141;46.204;19.774;2023-03-26T00:58:08;100041.41;;;7.04;93.99
72961;BME280;61141;46.204;19.774;2023-03-26T01:01:15;100035.22;;;7.07;93.82
72961;BME280;61141;46.204;19.774;2023-03-26T01:04:30;100025.31;;;6.99;93.54
72961;BME280;61141;46.204;19.774;2023-03-26T01:07:36;100051.25;;;6.93;93.96
72961;BME280;61141;46.204;19.774;2023-03-26T01:10:41;100049.41;;;6.81;93.83
72961;BME280;61141;46.204;19.774;2023-03-26T01:14:18;100049.41;;;6.81;94.00
72961;BME280;61141;46.204;19.774;2023-03-26T01:17:22;100052.81;;;6.78;93.95
72961;BME280;61141;46.204;19.774;2023-03-26T01:20:26;100056.94;;;6.72;93.78
72961;BME280;61141;46.204;19.774;2023-03-26T01:23:49;100054.56;;;6.86;93.90
72961;BME280;61141;46.204;19.774;2023-03-26T01:39:56;100047.44;;;6.35;94.00
72961;BME280;61141;46.204;19.774;2023-03-26T01:46:24;100046.56;;;6.19;94.32
72961;BME280;61141;46.204;19.774;2023-03-26T01:49:30;100022.31;;;5.98;94.52
72961;BME280;61141;46.204;19.774;2023-03-26T01:52:33;100032.69;;;6.08;94.97
72961;BME280;61141;46.204;19.774;2023-03-26T01:59:44;100052.12;;;5.95;94.79
72961;BME280;61141;46.204;19.774;2023-03-26T02:09:08;100060.19;;;5.67;95.10
72961;BME280;61141;46.204;19.774;2023-03-26T02:12:13;100048.81;;;5.49;95.61
72961;BME280;61141;46.204;19.774;2023-03-26T02:15:18;100055.84;;;5.38;96.61
72961;BME280;61141;46.204;19.774;2023-03-26T02:18:20;100057.78;;;5.38;96.12
72961;BME280;61141;46.204;19.774;2023-03-26T02:21:27;100064.56;;;5.31;96.23
72961;BME280;61141;46.204;19.774;2023-03-26T02:24:29;100059.00;;;5.40;96.59
72961;BME280;61141;46.204;19.774;2023-03-26T02:27:33;100057.44;;;5.27;95.79
72961;BME280;61141;46.204;19.774;2023-03-26T02:30:36;100053.94;;;5.02;96.23
72961;BME280;61141;46.204;19.774;2023-03-26T02:33:39;100061.19;;;5.10;96.23
72961;BME280;61141;46.204;19.774;2023-03-26T02:36:42;100056.56;;;5.11;96.67
72961;BME280;61141;46.204;19.774;2023-03-26T02:39:45;100063.78;;;5.07;96.60
72961;BME280;61141;46.204;19.774;2023-03-26T02:42:49;100047.25;;;4.88;96.20
72961;BME280;61141;46.204;19.774;2023-03-26T02:45:52;100044.00;;;4.94;96.15
72961;BME280;61141;46.204;19.774;2023-03-26T02:48:58;100059.03;;;5.04;96.84
72961;BME280;61141;46.204;19.774;2023-03-26T02:52:02;100062.97;;;5.30;97.50
72961;BME280;61141;46.204;19.774;2023-03-26T02:55:08;100054.41;;;5.16;96.89
72961;BME280;61141;46.204;19.774;2023-03-26T02:58:11;100054.16;;;5.09;96.66
72961;BME280;61141;46.204;19.774;2023-03-26T03:01:18;100060.97;;;5.15;96.38
72961;BME280;61141;46.204;19.774;2023-03-26T03:04:22;100057.78;;;5.01;96.38
72961;BME280;61141;46.204;19.774;2023-03-26T03:07:25;100039.47;;;5.10;97.32
72961;BME280;61141;46.204;19.774;2023-03-26T03:10:28;100041.50;;;5.01;95.74
72961;BME280;61141;46.204;19.774;2023-03-26T03:13:34;100039.69;;;4.69;95.44
72961;BME280;61141;46.204;19.774;2023-03-26T03:16:37;100058.09;;;4.75;95.88
72961;BME280;61141;46.204;19.774;2023-03-26T03:19:40;100054.81;;;4.70;95.93
72961;BME280;61141;46.204;19.774;2023-03-26T03:22:43;100052.00;;;4.79;96.93
72961;BME280;61141;46.204;19.774;2023-03-26T03:25:46;100051.44;;;4.73;96.77
72961;BME280;61141;46.204;19.774;2023-03-26T03:28:49;100031.97;;;4.59;96.28
72961;BME280;61141;46.204;19.774;2023-03-26T03:31:52;100045.66;;;4.62;96.01
72961;BME280;61141;46.204;19.774;2023-03-26T03:34:57;100042.59;;;4.64;96.03
72961;BME280;61141;46.204;19.774;2023-03-26T03:38:00;100037.13;;;4.40;95.78
72961;BME280;61141;46.204;19.774;2023-03-26T03:41:05;100050.00;;;4.43;95.92
72961;BME280;61141;46.204;19.774;2023-03-26T03:44:09;100053.28;;;4.36;95.74
72961;BME280;61141;46.204;19.774;2023-03-26T03:47:12;100043.72;;;4.18;96.38
72961;BME280;61141;46.204;19.774;2023-03-26T03:50:17;100057.41;;;4.22;96.36
72961;BME280;61141;46.204;19.774;2023-03-26T03:53:22;100055.03;;;4.20;96.91
72961;BME280;61141;46.204;19.774;2023-03-26T03:56:27;100055.50;;;4.22;97.28
72961;BME280;61141;46.204;19.774;2023-03-26T03:59:32;100054.84;;;4.25;97.50
72961;BME280;61141;46.204;19.774;2023-03-26T04:02:37;100060.25;;;4.25;97.10
72961;BME280;61141;46.204;19.774;2023-03-26T04:05:41;100058.88;;;4.19;97.07
72961;BME280;61141;46.204;19.774;2023-03-26T04:08:45;100045.81;;;4.00;96.59
72961;BME280;61141;46.204;19.774;2023-03-26T04:11:48;100064.63;;;4.18;97.37
72961;BME280;61141;46.204;19.774;2023-03-26T04:14:53;100044.06;;;3.84;97.46
72961;BME280;61141;46.204;19.774;2023-03-26T04:17:56;100060.94;;;4.01;98.78
72961;BME280;61141;46.204;19.774;2023-03-26T04:20:59;100062.78;;;4.09;99.72
72961;BME280;61141;46.204;19.774;2023-03-26T04:24:05;100065.69;;;4.25;100.00
72961;BME280;61141;46.204;19.774;2023-03-26T04:27:16;100069.12;;;4.13;99.76
72961;BME280;61141;46.204;19.774;2023-03-26T04:30:20;100070.25;;;4.12;99.51
72961;BME280;61141;46.204;19.774;2023-03-26T04:33:34;100075.97;;;4.32;99.92
72961;BME280;61141;46.204;19.774;2023-03-26T04:36:38;100067.13;;;4.23;100.00
72961;BME280;61141;46.204;19.774;2023-03-26T04:39:44;100089.00;;;4.50;100.00
72961;BME280;61141;46.204;19.774;2023-03-26T04:42:49;100087.19;;;4.42;99.36
72961;BME280;61141;46.204;19.774;2023-03-26T04:45:56;100061.03;;;4.26;99.65
72961;BME280;61141;46.204;19.774;2023-03-26T04:49:00;100082.81;;;4.50;100.00
72961;BME280;61141;46.204;19.774;2023-03-26T04:52:03;100093.22;;;4.60;100.00
72961;BME280;61141;46.204;19.774;2023-03-26T04:55:30;100090.75;;;4.67;100.00
72961;BME280;61141;46.204;19.774;2023-03-26T04:58:34;100094.41;;;4.83;100.00
72961;BME280;61141;46.204;19.774;2023-03-26T05:01:38;100087.97;;;4.88;100.00
72961;BME280;61141;46.204;19.774;2023-03-26T05:04:42;100096.44;;;4.86;99.98
72961;BME280;61141;46.204;19.774;2023-03-26T05:07:48;100103.72;;;4.94;100.00
72961;BME280;61141;46.204;19.774;2023-03-26T05:10:52;100085.03;;;4.93;99.95
72961;BME280;61141;46.204;19.774;2023-03-26T05:13:56;100098.50;;;5.01;100.00
72961;BME280;61141;46.204;19.774;2023-03-26T05:16:59;100103.22;;;4.92;99.25
72961;BME280;61141;46.204;19.774;2023-03-26T05:20:04;100084.78;;;4.73;99.66
72961;BME280;61141;46.204;19.774;2023-03-26T05:23:15;100087.72;;;4.81;99.67
72961;BME280;61141;46.204;19.774;2023-03-26T05:26:19;100106.53;;;5.10;100.00
72961;BME280;61141;46.204;19.774;2023-03-26T05:29:22;100105.50;;;5.14;100.00
72961;BME280;61141;46.204;19.774;2023-03-26T05:32:26;100107.31;;;5.22;100.00
72961;BME280;61141;46.204;19.774;2023-03-26T05:35:29;100112.09;;;5.38;100.00
72961;BME280;61141;46.204;19.774;2023-03-26T05:38:32;100100.44;;;5.49;100.00
72961;BME280;61141;46.204;19.774;2023-03-26T05:41:36;100107.44;;;5.50;100.00
72961;BME280;61141;46.204;19.774;2023-03-26T05:44:39;100095.28;;;5.72;100.00
72961;BME280;61141;46.204;19.774;2023-03-26T05:47:43;100116.09;;;5.80;100.00
72961;BME280;61141;46.204;19.774;2023-03-26T05:50:47;100100.38;;;5.85;99.91
72961;BME280;61141;46.204;19.774;2023-03-26T05:53:51;100102.91;;;6.18;99.06
72961;BME280;61141;46.204;19.774;2023-03-26T05:56:58;100105.22;;;6.32;98.77
72961;BME280;61141;46.204;19.774;2023-03-26T06:00:06;100102.28;;;6.53;97.76
72961;BME280;61141;46.204;19.774;2023-03-26T06:03:17;100119.28;;;6.77;97.30
72961;BME280;61141;46.204;19.774;2023-03-26T06:06:22;100125.53;;;6.93;97.20
72961;BME280;61141;46.204;19.774;2023-03-26T06:09:27;100120.38;;;7.20;96.15
72961;BME280;61141;46.204;19.774;2023-03-26T06:12:31;100133.44;;;7.61;94.59
72961;BME280;61141;46.204;19.774;2023-03-26T06:15:34;100128.81;;;7.81;93.73
72961;BME280;61141;46.204;19.774;2023-03-26T06:18:38;100125.00;;;8.01;92.20
72961;BME280;61141;46.204;19.774;2023-03-26T06:21:51;100127.34;;;8.21;91.67
72961;BME280;61141;46.204;19.774;2023-03-26T06:24:54;100121.19;;;8.24;91.26
72961;BME280;61141;46.204;19.774;2023-03-26T06:27:57;100116.84;;;8.39;90.74
72961;BME280;61141;46.204;19.774;2023-03-26T06:31:01;100117.63;;;8.59;89.80
72961;BME280;61141;46.204;19.774;2023-03-26T06:34:05;100110.47;;;8.73;89.75
72961;BME280;61141;46.204;19.774;2023-03-26T06:37:08;100118.19;;;8.91;89.09
72961;BME280;61141;46.204;19.774;2023-03-26T06:40:11;100128.28;;;9.09;88.13
72961;BME280;61141;46.204;19.774;2023-03-26T06:43:16;100113.25;;;9.22;88.34
72961;BME280;61141;46.204;19.774;2023-03-26T06:46:20;100108.47;;;9.38;87.87
72961;BME280;61141;46.204;19.774;2023-03-26T06:49:28;100092.97;;;9.46;86.98
72961;BME280;61141;46.204;19.774;2023-03-26T06:52:36;100119.00;;;9.63;87.96
72961;BME280;61141;46.204;19.774;2023-03-26T06:55:40;100086.84;;;9.56;87.88
72961;BME280;61141;46.204;19.774;2023-03-26T06:58:44;100106.28;;;10.03;85.23
72961;BME280;61141;46.204;19.774;2023-03-26T07:01:52;100102.47;;;10.12;84.77
72961;BME280;61141;46.204;19.774;2023-03-26T07:05:11;100092.13;;;10.28;82.96
72961;BME280;61141;46.204;19.774;2023-03-26T07:08:25;100100.97;;;10.47;82.30
72961;BME280;61141;46.204;19.774;2023-03-26T07:11:33;100099.19;;;10.62;81.40
72961;BME280;61141;46.204;19.774;2023-03-26T07:14:37;100101.63;;;10.71;80.89
72961;BME280;61141;46.204;19.774;2023-03-26T07:17:40;100099.38;;;10.83;79.48
72961;BME280;61141;46.204;19.774;2023-03-26T07:20:45;100099.47;;;10.90;80.15
72961;BME280;61141;46.204;19.774;2023-03-26T07:23:48;100099.66;;;11.11;80.10
72961;BME280;61141;46.204;19.774;2023-03-26T07:30:05;100095.97;;;11.37;79.45
72961;BME280;61141;46.204;19.774;2023-03-26T07:37:01;100111.00;;;11.61;76.47
72961;BME280;61141;46.204;19.774;2023-03-26T07:40:34;100096.12;;;11.62;76.83
72961;BME280;61141;46.204;19.774;2023-03-26T07:46:53;100106.09;;;11.84;74.36
72961;BME280;61141;46.204;19.774;2023-03-26T07:49:56;100108.16;;;12.01;72.78
72961;BME280;61141;46.204;19.774;2023-03-26T07:53:01;100112.16;;;12.14;73.87
72961;BME280;61141;46.204;19.774;2023-03-26T07:56:14;100111.41;;;12.24;71.78
72961;BME280;61141;46.204;19.774;2023-03-26T07:59:37;100105.16;;;12.34;72.18
72961;BME280;61141;46.204;19.774;2023-03-26T08:09:21;100085.66;;;12.75;70.94
72961;BME280;61141;46.204;19.774;2023-03-26T08:16:06;100083.72;;;13.04;68.88
72961;BME280;61141;46.204;19.774;2023-03-26T08:22:35;100078.66;;;13.30;67.11
72961;BME280;61141;46.204;19.774;2023-03-26T08:32:30;100075.09;;;13.51;65.67
72961;BME280;61141;46.204;19.774;2023-03-26T08:35:33;100065.62;;;13.63;64.22
72961;BME280;61141;46.204;19.774;2023-03-26T08:38:37;100063.66;;;13.70;63.60
72961;BME280;61141;46.204;19.774;2023-03-26T08:58:48;100058.34;;;14.36;62.06
72961;BME280;61141;46.204;19.774;2023-03-26T09:12:13;100054.28;;;14.58;58.16
72961;BME280;61141;46.204;19.774;2023-03-26T09:33:23;100027.50;;;15.06;51.51
72961;BME280;61141;46.204;19.774;2023-03-26T09:40:14;100006.16;;;15.14;50.42
72961;BME280;61141;46.204;19.774;2023-03-26T09:47:06;100002.50;;;15.68;49.59
72961;BME280;61141;46.204;19.774;2023-03-26T09:56:33;99990.50;;;15.41;47.51
72961;BME280;61141;46.204;19.774;2023-03-26T10:03:02;99983.63;;;15.94;48.21
72961;BME280;61141;46.204;19.774;2023-03-26T10:06:24;99984.66;;;15.76;46.05
72961;BME280;61141;46.204;19.774;2023-03-26T10:13:11;99969.38;;;16.25;43.81
72961;BME280;61141;46.204;19.774;2023-03-26T10:22:57;99960.56;;;16.34;41.42
72961;BME280;61141;46.204;19.774;2023-03-26T10:35:58;99941.22;;;16.61;38.81
72961;BME280;61141;46.204;19.774;2023-03-26T10:39:27;99930.22;;;16.57;39.97
72961;BME280;61141;46.204;19.774;2023-03-26T10:49:48;99914.41;;;16.81;42.18
72961;BME280;61141;46.204;19.774;2023-03-26T10:52:58;99913.41;;;17.14;42.51
72961;BME280;61141;46.204;19.774;2023-03-26T10:56:19;99912.78;;;17.07;41.90
72961;BME280;61141;46.204;19.774;2023-03-26T10:59:25;99902.47;;;17.07;40.93
72961;BME280;61141;46.204;19.774;2023-03-26T11:02:37;99897.72;;;17.08;41.20
72961;BME280;61141;46.204;19.774;2023-03-26T11:09:23;99872.47;;;17.06;40.43
72961;BME280;61141;46.204;19.774;2023-03-26T11:12:36;99879.84;;;17.12;39.95
72961;BME280;61141;46.204;19.774;2023-03-26T11:16:18;99882.91;;;17.18;39.14
72961;BME280;61141;46.204;19.774;2023-03-26T11:33:29;99861.81;;;17.24;36.81
72961;BME280;61141;46.204;19.774;2023-03-26T11:36:37;99848.13;;;17.17;36.25
72961;BME280;61141;46.204;19.774;2023-03-26T11:39:53;99858.47;;;17.52;37.05
72961;BME280;61141;46.204;19.774;2023-03-26T11:43:01;99829.81;;;17.42;36.39
72961;BME280;61141;46.204;19.774;2023-03-26T11:46:09;99812.94;;;17.53;35.41
72961;BME280;61141;46.204;19.774;2023-03-26T11:49:17;99820.06;;;17.54;36.05
72961;BME280;61141;46.204;19.774;2023-03-26T11:52:21;99826.00;;;17.52;35.05
72961;BME280;61141;46.204;19.774;2023-03-26T11:55:24;99808.34;;;17.46;35.66
72961;BME280;61141;46.204;19.774;2023-03-26T11:58:36;99824.44;;;17.71;36.00
72961;BME280;61141;46.204;19.774;2023-03-26T12:05:19;99795.94;;;17.71;35.24
72961;BME280;61141;46.204;19.774;2023-03-26T12:08:32;99789.03;;;17.79;34.68
72961;BME280;61141;46.204;19.774;2023-03-26T12:11:36;99795.69;;;17.81;34.51
72961;BME280;61141;46.204;19.774;2023-03-26T12:14:41;99784.28;;;17.79;34.33
72961;BME280;61141;46.204;19.774;2023-03-26T12:17:53;99777.34;;;17.87;33.53
72961;BME280;61141;46.204;19.774;2023-03-26T12:24:30;99754.84;;;17.69;33.61
72961;BME280;61141;46.204;19.774;2023-03-26T12:27:33;99754.12;;;17.81;33.38
72961;BME280;61141;46.204;19.774;2023-03-26T12:30:58;99740.47;;;17.74;33.28
72961;BME280;61141;46.204;19.774;2023-03-26T12:34:06;99740.78;;;17.92;33.17
72961;BME280;61141;46.204;19.774;2023-03-26T12:37:35;99737.34;;;17.72;33.29
72961;BME280;61141;46.204;19.774;2023-03-26T12:40:38;99718.75;;;17.89;33.50
72961;BME280;61141;46.204;19.774;2023-03-26T12:43:50;99709.81;;;17.65;33.04
72961;BME280;61141;46.204;19.774;2023-03-26T12:47:21;99704.78;;;17.92;34.13
72961;BME280;61141;46.204;19.774;2023-03-26T13:05:00;99679.81;;;18.08;33.90
72961;BME280;61141;46.204;19.774;2023-03-26T13:25:01;99638.47;;;17.69;33.17
72961;BME280;61141;46.204;19.774;2023-03-26T13:31:37;99633.44;;;17.32;33.77
72961;BME280;61141;46.204;19.774;2023-03-26T13:41:32;99627.19;;;16.95;34.00
72961;BME280;61141;46.204;19.774;2023-03-26T13:44:48;99617.91;;;17.02;33.79
72961;BME280;61141;46.204;19.774;2023-03-26T13:48:13;99613.75;;;16.94;34.60
72961;BME280;61141;46.204;19.774;2023-03-26T13:51:39;99597.75;;;17.01;34.41
72961;BME280;61141;46.204;19.774;2023-03-26T13:54:54;99601.59;;;17.08;34.10
72961;BME280;61141;46.204;19.774;2023-03-26T14:01:26;99588.00;;;17.13;34.22
72961;BME280;61141;46.204;19.774;2023-03-26T14:04:40;99583.34;;;17.10;33.86
72961;BME280;61141;46.204;19.774;2023-03-26T14:10:57;99566.72;;;17.26;33.53
72961;BME280;61141;46.204;19.774;2023-03-26T14:14:10;99559.19;;;17.43;33.70
72961;BME280;61141;46.204;19.774;2023-03-26T14:17:23;99550.22;;;17.55;32.63
72961;BME280;61141;46.204;19.774;2023-03-26T14:43:59;99528.69;;;17.14;33.09
72961;BME280;61141;46.204;19.774;2023-03-26T14:47:19;99511.63;;;17.16;33.04
72961;BME280;61141;46.204;19.774;2023-03-26T14:50:33;99515.00;;;17.23;33.83
72961;BME280;61141;46.204;19.774;2023-03-26T14:53:47;99505.66;;;17.33;32.89
72961;BME280;61141;46.204;19.774;2023-03-26T15:07:46;99476.13;;;17.43;33.44
72961;BME280;61141;46.204;19.774;2023-03-26T15:11:18;99476.81;;;17.47;33.69
72961;BME280;61141;46.204;19.774;2023-03-26T15:41:51;99415.34;;;16.94;33.92
72961;BME280;61141;46.204;19.774;2023-03-26T15:45:15;99413.97;;;16.86;33.98
72961;BME280;61141;46.204;19.774;2023-03-26T15:48:30;99410.59;;;16.79;34.08
72961;BME280;61141;46.204;19.774;2023-03-26T15:58:28;99402.59;;;16.32;34.82
72961;BME280;61141;46.204;19.774;2023-03-26T16:01:59;99398.19;;;16.19;36.14
72961;BME280;61141;46.204;19.774;2023-03-26T16:05:29;99388.25;;;16.05;36.70
72961;BME280;61141;46.204;19.774;2023-03-26T16:14:47;99363.56;;;15.62;37.67
72961;BME280;61141;46.204;19.774;2023-03-26T16:21:34;99375.69;;;15.49;38.93
72961;BME280;61141;46.204;19.774;2023-03-26T16:24:42;99361.34;;;15.34;38.87
72961;BME280;61141;46.204;19.774;2023-03-26T16:27:46;99367.16;;;15.20;39.32
72961;BME280;61141;46.204;19.774;2023-03-26T16:34:57;99356.25;;;14.93;40.84
72961;BME280;61141;46.204;19.774;2023-03-26T16:38:08;99349.44;;;14.78;41.58
72961;BME280;61141;46.204;19.774;2023-03-26T16:41:18;99344.94;;;14.64;42.32
72961;BME280;61141;46.204;19.774;2023-03-26T16:47:49;99336.22;;;14.46;42.73
72961;BME280;61141;46.204;19.774;2023-03-26T16:51:25;99336.41;;;14.36;43.05
72961;BME280;61141;46.204;19.774;2023-03-26T16:54:50;99336.03;;;14.34;43.20
72961;BME280;61141;46.204;19.774;2023-03-26T16:58:27;99336.03;;;14.34;42.09
72961;BME280;61141;46.204;19.774;2023-03-26T17:01:49;99336.06;;;14.30;42.01
72961;BME280;61141;46.204;19.774;2023-03-26T17:18:47;99326.59;;;13.81;44.06
72961;BME280;61141;46.204;19.774;2023-03-26T17:21:57;99320.69;;;13.83;43.90
72961;BME280;61141;46.204;19.774;2023-03-26T17:25:24;99310.28;;;13.67;44.29
72961;BME280;61141;46.204;19.774;2023-03-26T17:34:58;99331.72;;;13.52;44.95
72961;BME280;61141;46.204;19.774;2023-03-26T17:41:48;99320.88;;;13.42;45.73
72961;BME280;61141;46.204;19.774;2023-03-26T17:45:02;99319.38;;;13.34;46.01
72961;BME280;61141;46.204;19.774;2023-03-26T17:48:19;99313.75;;;13.14;46.71
72961;BME280;61141;46.204;19.774;2023-03-26T17:54:50;99317.72;;;13.10;47.18
72961;BME280;61141;46.204;19.774;2023-03-26T17:58:15;99315.06;;;12.99;47.84
72961;BME280;61141;46.204;19.774;2023-03-26T18:04:36;99311.75;;;12.81;47.10
72961;BME280;61141;46.204;19.774;2023-03-26T18:18:11;99299.63;;;12.78;46.24
72961;BME280;61141;46.204;19.774;2023-03-26T18:21:26;99292.59;;;12.74;45.91
72961;BME280;61141;46.204;19.774;2023-03-26T18:24:32;99284.66;;;12.79;45.33
72961;BME280;61141;46.204;19.774;2023-03-26T18:27:39;99293.28;;;12.81;45.76
72961;BME280;61141;46.204;19.774;2023-03-26T18:30:46;99292.87;;;12.83;45.61
72961;BME280;61141;46.204;19.774;2023-03-26T18:33:53;99280.75;;;12.80;45.85
72961;BME280;61141;46.204;19.774;2023-03-26T18:40:18;99268.50;;;12.85;45.17
72961;BME280;61141;46.204;19.774;2023-03-26T18:43:23;99265.75;;;12.85;45.70
72961;BME280;61141;46.204;19.774;2023-03-26T18:46:37;99256.38;;;12.82;45.46
72961;BME280;61141;46.204;19.774;2023-03-26T18:49:45;99239.87;;;12.82;45.66
72961;BME280;61141;46.204;19.774;2023-03-26T18:52:49;99240.56;;;12.90;44.68
72961;BME280;61141;46.204;19.774;2023-03-26T18:55:53;99231.56;;;12.89;45.04
72961;BME280;61141;46.204;19.774;2023-03-26T18:59:00;99234.31;;;12.89;45.31
72961;BME280;61141;46.204;19.774;2023-03-26T19:02:10;99231.97;;;12.88;46.45
72961;BME280;61141;46.204;19.774;2023-03-26T19:05:16;99241.34;;;12.90;46.50
72961;BME280;61141;46.204;19.774;2023-03-26T19:08:21;99224.06;;;12.90;46.49
72961;BME280;61141;46.204;19.774;2023-03-26T19:11:26;99215.47;;;12.88;46.04
72961;BME280;61141;46.204;19.774;2023-03-26T19:14:30;99210.72;;;12.92;45.84
72961;BME280;61141;46.204;19.774;2023-03-26T19:17:39;99197.34;;;12.94;45.31
72961;BME280;61141;46.204;19.774;2023-03-26T19:20:47;99189.44;;;12.96;45.46
72961;BME280;61141;46.204;19.774;2023-03-26T19:23:53;99201.53;;;13.02;44.73
72961;BME280;61141;46.204;19.774;2023-03-26T19:26:58;99196.16;;;12.95;45.93
72961;BME280;61141;46.204;19.774;2023-03-26T19:30:01;99180.47;;;12.92;46.28
72961;BME280;61141;46.204;19.774;2023-03-26T19:33:17;99179.22;;;12.96;45.37
72961;BME280;61141;46.204;19.774;2023-03-26T19:36:24;99176.84;;;12.98;45.16
72961;BME280;61141;46.204;19.774;2023-03-26T19:42:42;99161.13;;;12.99;46.02
72961;BME280;61141;46.204;19.774;2023-03-26T19:45:49;99162.78;;;12.93;45.72
72961;BME280;61141;46.204;19.774;2023-03-26T19:49:03;99135.09;;;12.80;45.84
72961;BME280;61141;46.204;19.774;2023-03-26T19:52:14;99151.84;;;12.89;46.00
72961;BME280;61141;46.204;19.774;2023-03-26T19:55:20;99151.00;;;12.92;45.68
72961;BME280;61141;46.204;19.774;2023-03-26T19:58:25;99138.47;;;12.91;45.76
72961;BME280;61141;46.204;19.774;2023-03-26T20:01:29;99137.31;;;12.89;46.31
72961;BME280;61141;46.204;19.774;2023-03-26T20:04:33;99134.97;;;12.87;47.11
72961;BME280;61141;46.204;19.774;2023-03-26T20:07:36;99126.03;;;12.83;46.97
72961;BME280;61141;46.204;19.774;2023-03-26T20:10:42;99123.75;;;12.78;47.96
72961;BME280;61141;46.204;19.774;2023-03-26T20:13:46;99111.22;;;12.74;48.11
72961;BME280;61141;46.204;19.774;2023-03-26T20:16:50;99084.69;;;12.64;48.29
72961;BME280;61141;46.204;19.774;2023-03-26T20:19:53;99086.97;;;12.69;49.33
72961;BME280;61141;46.204;19.774;2023-03-26T20:22:57;99087.28;;;12.74;48.59
72961;BME280;61141;46.204;19.774;2023-03-26T20:25:59;99060.31;;;12.66;49.21
72961;BME280;61141;46.204;19.774;2023-03-26T20:29:03;99088.44;;;12.73;49.46
72961;BME280;61141;46.204;19.774;2023-03-26T20:32:18;99093.56;;;12.75;50.18
72961;BME280;61141;46.204;19.774;2023-03-26T20:35:23;99072.88;;;12.67;51.26
72961;BME280;61141;46.204;19.774;2023-03-26T20:38:43;99069.03;;;12.61;52.68
72961;BME280;61141;46.204;19.774;2023-03-26T20:41:47;99067.22;;;12.51;54.27
72961;BME280;61141;46.204;19.774;2023-03-26T20:44:51;99058.22;;;12.47;54.74
72961;BME280;61141;46.204;19.774;2023-03-26T20:47:54;99055.91;;;12.45;54.19
72961;BME280;61141;46.204;19.774;2023-03-26T20:50:57;99055.94;;;12.42;53.46
72961;BME280;61141;46.204;19.774;2023-03-26T20:54:01;99027.84;;;12.30;53.46
72961;BME280;61141;46.204;19.774;2023-03-26T20:57:04;99027.38;;;12.35;53.40
72961;BME280;61141;46.204;19.774;2023-03-26T21:00:09;99036.78;;;12.34;54.36
72961;BME280;61141;46.204;19.774;2023-03-26T21:03:24;99035.66;;;12.32;53.52
72961;BME280;61141;46.204;19.774;2023-03-26T21:06:27;99011.66;;;12.40;53.18
72961;BME280;61141;46.204;19.774;2023-03-26T21:09:30;99016.44;;;12.32;54.87
72961;BME280;61141;46.204;19.774;2023-03-26T21:12:47;99023.28;;;12.20;58.90
72961;BME280;61141;46.204;19.774;2023-03-26T21:15:52;99018.00;;;12.03;60.67
72961;BME280;61141;46.204;19.774;2023-03-26T21:18:55;99004.31;;;11.99;60.83
72961;BME280;61141;46.204;19.774;2023-03-26T21:22:13;99001.25;;;11.94;61.59
72961;BME280;61141;46.204;19.774;2023-03-26T21:28:33;98992.97;;;11.97;60.97
72961;BME280;61141;46.204;19.774;2023-03-26T21:31:44;98978.09;;;11.98;59.80
72961;BME280;61141;46.204;19.774;2023-03-26T21:34:48;98956.66;;;11.86;59.54
72961;BME280;61141;46.204;19.774;2023-03-26T21:38:03;98956.72;;;11.83;61.17
72961;BME280;61141;46.204;19.774;2023-03-26T21:41:06;98956.16;;;11.61;64.56
72961;BME280;61141;46.204;19.774;2023-03-26T21:44:09;98936.03;;;11.74;58.26
72961;BME280;61141;46.204;19.774;2023-03-26T21:47:12;98950.41;;;11.86;59.49
72961;BME280;61141;46.204;19.774;2023-03-26T21:50:19;98956.13;;;11.64;62.14
72961;BME280;61141;46.204;19.774;2023-03-26T21:53:23;98963.34;;;11.51;63.55
72961;BME280;61141;46.204;19.774;2023-03-26T21:56:52;98952.84;;;11.05;68.05
72961;BME280;61141;46.204;19.774;2023-03-26T22:00:08;98931.16;;;10.81;68.22
72961;BME280;61141;46.204;19.774;2023-03-26T22:04:09;98940.63;;;10.69;69.45
72961;BME280;61141;46.204;19.774;2023-03-26T22:07:11;98920.38;;;10.63;70.91
72961;BME280;61141;46.204;19.774;2023-03-26T22:10:17;98919.19;;;10.60;71.00
72961;BME280;61141;46.204;19.774;2023-03-26T22:13:20;98925.41;;;10.68;71.44
72961;BME280;61141;46.204;19.774;2023-03-26T22:16:22;98900.47;;;10.55;68.88
72961;BME280;61141;46.204;19.774;2023-03-26T22:19:28;98900.19;;;10.46;70.73